.
WxDataArchive / Data Records for 2014-12-08
2014-12-07 December 2014 2014-12-09

Data Records for Monday, 08 December 2014

Time	Temp	Chill	HIndex	Humid	Dewpt	 Wind 	HiWind	WindDir	Rain 	Barom
-----	----	-----	------	-----	-----	------	------	-------	-----	-----
00:00	29.8	29.8	29.8	87	26.4	1	3	90	0.00	30.379 
00:05	29.8	29.8	29.8	87	26.4	0	3	90	0.00	30.379 
00:10	29.7	29.7	29.7	87	26.3	1	3	90	0.00	30.379 
00:15	29.5	29.5	29.5	87	26.1	1	3	90	0.00	30.371 
00:20	29.5	29.5	29.5	87	26.1	1	3	90	0.00	30.371 
00:25	29.4	29.4	29.4	87	26.0	1	2	90	0.00	30.371 
00:30	29.4	29.4	29.4	87	26.0	0	2	90	0.00	30.370 
00:35	29.3	29.3	29.3	87	25.9	0	2	90	0.00	30.370 
00:40	29.3	29.3	29.3	88	26.2	1	3	90	0.00	30.370 
00:45	29.1	29.1	29.1	88	26.0	0	1	90	0.00	30.363 
00:50	29.1	29.1	29.1	88	26.0	0	2	90	0.00	30.363 
00:55	29.1	29.1	29.1	88	26.0	0	2	90	0.00	30.363 
01:00	29.0	29.0	29.0	88	25.9	0	2	90	0.00	30.355 
01:05	29.0	29.0	29.0	88	25.9	0	2	90	0.00	30.355 
01:10	29.0	29.0	29.0	88	25.9	0	1	90	0.00	30.355 
01:15	29.0	29.0	29.0	88	25.9	1	3	90	0.00	30.340 
01:20	29.0	29.0	29.0	88	25.9	0	2	90	0.00	30.340 
01:25	29.0	29.0	29.0	88	25.9	1	3	90	0.00	30.340 
01:30	29.0	29.0	29.0	88	25.9	1	3	90	0.00	30.337 
01:35	29.0	29.0	29.0	88	25.9	1	4	90	0.00	30.337 
01:40	29.0	29.0	29.0	88	25.9	1	3	90	0.00	30.337 
01:45	29.0	29.0	29.0	88	25.9	1	4	90	0.00	30.332 
01:50	29.1	29.1	29.1	88	26.0	1	2	90	0.00	30.332 
01:55	29.1	29.1	29.1	88	26.0	1	3	90	0.00	30.332 
02:00	29.1	29.1	29.1	88	26.0	0	2	90	0.00	30.326 
02:05	29.1	29.1	29.1	88	26.0	0	3	90	0.00	30.326 
02:10	29.1	29.1	29.1	88	26.0	0	3	90	0.00	30.326 
02:15	29.1	29.1	29.1	87	25.7	0	1	90	0.00	30.325 
02:20	29.0	29.0	29.0	87	25.6	0	1	90	0.00	30.325 
02:25	29.0	29.0	29.0	88	25.9	0	0	---	0.00	30.325 
02:30	28.8	28.8	28.8	88	25.7	0	1	90	0.00	30.321 
02:35	28.7	28.7	28.7	88	25.6	0	0	---	0.00	30.321 
02:40	28.7	28.7	28.7	88	25.6	0	0	---	0.00	30.321 
02:45	28.5	28.5	28.5	88	25.4	0	0	---	0.00	30.320 
02:50	28.4	28.4	28.4	88	25.3	0	0	---	0.00	30.320 
02:55	28.2	28.2	28.2	88	25.1	0	0	---	0.00	30.320 
03:00	28.1	28.1	28.1	88	25.0	0	0	---	0.00	30.316 
03:05	28.1	28.1	28.1	88	25.0	0	0	---	0.00	30.316 
03:10	27.9	27.9	27.9	88	24.8	0	0	---	0.00	30.316 
03:15	27.8	27.8	27.8	88	24.7	0	0	---	0.00	30.307 
03:20	27.8	27.8	27.8	88	24.7	0	0	---	0.00	30.307 
03:25	27.6	27.6	27.6	88	24.5	0	0	---	0.00	30.307 
03:30	27.6	27.6	27.6	88	24.5	0	0	---	0.00	30.305 
03:35	27.6	27.6	27.6	88	24.5	0	0	---	0.00	30.305 
03:40	27.6	27.6	27.6	88	24.5	0	0	---	0.00	30.305 
03:45	27.6	27.6	27.6	89	24.8	0	0	---	0.00	30.298 
03:50	27.6	27.6	27.6	89	24.8	0	0	---	0.00	30.298 
03:55	27.6	27.6	27.6	89	24.8	0	0	---	0.00	30.298 
04:00	27.8	27.8	27.8	89	25.0	0	0	---	0.00	30.304 
04:05	27.8	27.8	27.8	89	25.0	0	0	---	0.00	30.304 
04:10	27.8	27.8	27.8	89	25.0	0	1	90	0.00	30.304 
04:15	27.8	27.8	27.8	89	25.0	0	0	---	0.00	30.305 
04:20	27.8	27.8	27.8	89	25.0	0	0	---	0.00	30.305 
04:25	27.6	27.6	27.6	89	24.8	0	0	---	0.00	30.305 
04:30	27.6	27.6	27.6	89	24.8	0	0	---	0.00	30.292 
04:35	27.6	27.6	27.6	89	24.8	0	0	---	0.00	30.292 
04:40	27.6	27.6	27.6	89	24.8	0	0	---	0.00	30.292 
04:45	27.6	27.6	27.6	89	24.8	0	0	---	0.00	30.280 
04:50	27.6	27.6	27.6	89	24.8	0	0	---	0.00	30.280 
04:55	27.6	27.6	27.6	89	24.8	0	0	---	0.00	30.280 
05:00	27.6	27.6	27.6	89	24.8	0	0	---	0.00	30.277 
05:05	27.8	27.8	27.8	89	25.0	0	0	---	0.00	30.277 
05:10	27.8	27.8	27.8	89	25.0	0	0	---	0.00	30.277 
05:15	27.9	27.9	27.9	89	25.1	0	0	---	0.00	30.276 
05:20	27.9	27.9	27.9	89	25.1	0	0	---	0.00	30.276 
05:25	27.9	27.9	27.9	89	25.1	0	0	---	0.00	30.276 
05:30	27.9	27.9	27.9	89	25.1	0	0	---	0.00	30.272 
05:35	27.8	27.8	27.8	89	25.0	0	0	---	0.00	30.272 
05:40	27.8	27.8	27.8	89	25.0	0	0	---	0.00	30.272 
05:45	27.6	27.6	27.6	89	24.8	0	0	---	0.00	30.267 
05:50	27.8	27.8	27.8	89	25.0	0	1	90	0.00	30.267 
05:55	27.8	27.8	27.8	89	25.0	0	0	---	0.00	30.267 
06:00	27.8	27.8	27.8	88	24.7	0	0	---	0.00	30.263 
06:05	27.6	27.6	27.6	88	24.5	0	0	---	0.00	30.263 
06:10	27.6	27.6	27.6	88	24.5	0	0	---	0.00	30.263 
06:15	27.5	27.5	27.5	88	24.4	0	0	---	0.00	30.264 
06:20	27.3	27.3	27.3	88	24.2	0	0	---	0.00	30.264 
06:25	27.2	27.2	27.2	88	24.1	0	0	---	0.00	30.264 
06:30	27.2	27.2	27.2	88	24.1	0	0	---	0.00	30.265 
06:35	27.0	27.0	27.0	89	24.2	0	0	---	0.00	30.265 
06:40	27.0	27.0	27.0	88	23.9	0	0	---	0.00	30.265 
06:45	26.9	26.9	26.9	89	24.1	0	0	---	0.00	30.260 
06:50	26.9	26.9	26.9	89	24.1	0	0	---	0.00	30.260 
06:55	26.9	26.9	26.9	89	24.1	0	0	---	0.00	30.260 
07:00	26.9	26.9	26.9	89	24.1	0	0	---	0.00	30.255 
07:05	26.9	26.9	26.9	89	24.1	0	0	---	0.00	30.255 
07:10	26.9	26.9	26.9	89	24.1	0	0	---	0.00	30.255 
07:15	26.7	26.7	26.7	89	23.9	0	0	---	0.00	30.252 
07:20	26.9	26.9	26.9	89	24.1	0	0	---	0.00	30.252 
07:25	26.9	26.9	26.9	89	24.1	0	0	---	0.00	30.252 
07:30	27.0	27.0	27.0	89	24.2	0	0	---	0.00	30.248 
07:35	27.2	27.2	27.2	89	24.4	0	1	90	0.00	30.248 
07:40	27.3	27.3	27.3	89	24.5	0	0	---	0.00	30.248 
07:45	27.5	27.5	27.5	89	24.7	0	0	---	0.00	30.245 
07:50	27.5	27.5	27.5	89	24.7	0	0	---	0.00	30.245 
07:55	27.6	27.6	27.6	89	24.8	0	0	---	0.00	30.245 
08:00	27.6	27.6	27.6	89	24.8	0	0	---	0.00	30.242 
08:05	27.6	27.6	27.6	89	24.8	0	0	---	0.00	30.242 
08:10	27.8	27.8	27.8	89	25.0	0	0	---	0.00	30.242 
08:15	28.1	28.1	28.1	89	25.3	0	0	---	0.00	30.236 
08:20	28.2	28.2	28.2	89	25.4	0	0	---	0.00	30.236 
08:25	28.4	28.4	28.4	89	25.6	0	0	---	0.00	30.236 
08:30	28.5	28.5	28.5	89	25.7	0	0	---	0.00	30.235 
08:35	28.7	28.7	28.7	88	25.6	0	1	90	0.00	30.235 
08:40	29.0	29.0	29.0	88	25.9	0	1	90	0.00	30.235 
08:45	29.1	29.1	29.1	88	26.0	0	1	90	0.00	30.232 
08:50	29.4	29.4	29.4	87	26.0	0	1	90	0.00	30.232 
08:55	29.5	29.5	29.5	87	26.1	0	2	90	0.00	30.232 
09:00	29.7	29.7	29.7	86	26.0	0	1	90	0.00	30.222 
09:05	30.0	30.0	30.0	86	26.3	0	2	90	0.00	30.222 
09:10	30.1	30.1	30.1	86	26.4	0	1	90	0.00	30.222 
09:15	30.3	30.3	30.3	85	26.3	0	2	90	0.00	30.219 
09:20	30.4	30.4	30.4	85	26.4	0	0	---	0.00	30.219 
09:25	30.6	30.6	30.6	85	26.6	0	1	90	0.00	30.219 
09:30	30.7	30.7	30.7	85	26.7	0	1	90	0.00	30.216 
09:35	30.9	30.9	30.9	85	26.9	0	2	90	0.00	30.216 
09:40	31.2	31.2	31.2	84	26.9	0	1	90	0.00	30.216 
09:45	31.3	31.3	31.3	84	27.0	0	1	90	0.00	30.215 
09:50	31.5	31.5	31.5	84	27.2	0	1	90	0.00	30.215 
09:55	31.8	31.8	31.8	84	27.5	0	2	90	0.00	30.215 
10:00	32.1	32.1	32.1	84	27.8	0	2	90	0.00	30.212 
10:05	32.4	32.4	32.4	84	28.1	0	1	90	0.00	30.212 
10:10	32.8	32.8	32.8	83	28.2	0	1	90	0.00	30.212 
10:15	33.2	33.2	33.2	83	28.6	0	1	90	0.00	30.205 
10:20	33.5	33.5	33.5	82	28.6	0	1	90	0.00	30.205 
10:25	33.8	33.8	33.8	82	28.9	0	2	90	0.00	30.205 
10:30	34.3	34.3	34.3	82	29.4	0	2	90	0.00	30.198 
10:35	34.6	34.6	34.6	81	29.4	0	3	90	0.00	30.198 
10:40	35.0	35.0	35.0	80	29.5	0	4	90	0.00	30.198 
10:45	35.3	35.3	35.3	79	29.4	0	3	90	0.00	30.195 
10:50	35.6	35.6	35.6	78	29.4	1	3	90	0.00	30.195 
10:55	35.9	35.9	35.9	78	29.7	0	3	90	0.00	30.195 
11:00	36.0	36.0	36.0	77	29.5	0	3	90	0.00	30.185 
11:05	36.2	36.2	36.2	77	29.7	1	4	90	0.00	30.185 
11:10	36.3	36.3	36.3	76	29.5	0	4	248	0.00	30.185 
11:15	36.5	36.5	36.5	76	29.7	0	2	248	0.00	30.176 
11:20	36.6	36.6	36.6	76	29.8	0	4	112	0.00	30.176 
11:25	36.8	36.8	36.8	76	30.0	0	1	112	0.00	30.176 
11:30	36.9	36.9	36.9	76	30.1	0	3	112	0.00	30.165 
11:35	36.9	36.9	36.9	76	30.1	0	2	112	0.00	30.165 
11:40	37.0	37.0	37.0	76	30.2	1	4	112	0.00	30.165 
11:45	37.2	37.2	37.2	76	30.3	0	2	338	0.00	30.160 
11:50	37.2	37.2	37.2	75	30.0	1	4	315	0.00	30.160 
11:55	37.5	37.5	37.5	76	30.6	0	1	270	0.00	30.160 
12:00	37.8	37.8	37.8	75	30.6	1	3	68	0.00	30.146 
12:05	38.2	38.2	38.2	75	31.0	0	3	248	0.00	30.146 
12:10	38.3	38.3	38.3	74	30.8	0	4	248	0.00	30.146 
12:15	38.5	38.5	38.5	74	30.9	1	4	90	0.00	30.138 
12:20	38.5	38.5	38.5	73	30.6	0	3	270	0.00	30.138 
12:25	38.6	38.6	38.6	73	30.7	0	2	270	0.00	30.138 
12:30	38.8	38.8	38.8	74	31.2	0	2	270	0.00	30.128 
12:35	38.9	38.9	38.9	74	31.3	0	3	248	0.00	30.128 
12:40	39.1	39.1	39.1	74	31.5	0	1	248	0.00	30.128 
12:45	39.1	39.1	39.1	73	31.2	1	4	90	0.00	30.118 
12:50	39.1	39.1	39.1	73	31.2	1	5	68	0.00	30.118 
12:55	39.2	39.2	39.2	74	31.6	0	2	112	0.00	30.118 
13:00	39.3	39.3	39.3	73	31.4	1	3	248	0.00	30.114 
13:05	39.6	39.6	39.6	73	31.7	0	4	90	0.00	30.114 
13:10	39.8	39.8	39.8	72	31.5	0	3	270	0.00	30.114 
13:15	39.9	39.9	39.9	72	31.6	1	3	270	0.00	30.109 
13:20	39.9	39.9	39.9	72	31.6	0	1	270	0.00	30.109 
13:25	39.9	39.9	39.9	72	31.6	0	2	270	0.00	30.109 
13:30	39.9	39.9	39.9	72	31.6	1	4	112	0.00	30.098 
13:35	39.9	39.9	39.9	72	31.6	1	4	112	0.00	30.098 
13:40	40.1	40.1	40.1	72	31.8	1	2	112	0.00	30.098 
13:45	40.1	40.1	40.1	72	31.8	0	3	248	0.00	30.097 
13:50	40.1	40.1	40.1	73	32.2	0	5	248	0.00	30.097 
13:55	40.1	40.1	40.1	72	31.8	0	3	248	0.00	30.097 
14:00	40.1	40.1	40.1	73	32.2	0	2	248	0.00	30.095 
14:05	40.1	40.1	40.1	73	32.2	0	3	248	0.00	30.095 
14:10	40.1	40.1	40.1	73	32.2	0	2	248	0.00	30.095 
14:15	40.1	40.1	40.1	73	32.2	0	3	292	0.00	30.085 
14:20	40.1	40.1	40.1	73	32.2	1	4	45	0.00	30.085 
14:25	40.1	40.1	40.1	74	32.5	0	2	45	0.00	30.085 
14:30	40.1	40.1	40.1	74	32.5	0	3	45	0.00	30.082 
14:35	40.2	40.2	40.2	74	32.6	0	2	68	0.00	30.082 
14:40	40.3	40.3	40.3	74	32.7	0	2	68	0.00	30.082 
14:45	40.5	40.5	40.5	74	32.9	1	3	68	0.00	30.071 
14:50	40.5	40.5	40.5	73	32.5	1	4	68	0.00	30.071 
14:55	40.5	40.5	40.5	73	32.5	1	5	68	0.00	30.071 
15:00	40.5	40.5	40.5	74	32.9	0	2	68	0.00	30.068 
15:05	40.6	40.6	40.6	74	33.0	0	2	68	0.00	30.068 
15:10	40.6	40.6	40.6	73	32.6	0	5	68	0.00	30.068 
15:15	40.6	40.6	40.6	73	32.6	1	4	68	0.00	30.066 
15:20	40.6	40.6	40.6	73	32.6	0	2	68	0.00	30.066 
15:25	40.6	40.6	40.6	73	32.6	0	2	68	0.00	30.066 
15:30	40.6	40.6	40.6	73	32.6	0	1	68	0.00	30.066 
15:35	40.8	40.8	40.8	73	32.8	0	2	68	0.00	30.066 
15:40	40.8	40.8	40.8	73	32.8	0	2	68	0.00	30.066 
15:45	40.8	40.8	40.8	73	32.8	0	2	68	0.00	30.069 
15:50	40.8	40.8	40.8	74	33.2	0	1	68	0.00	30.069 
15:55	40.8	40.8	40.8	74	33.2	0	2	68	0.00	30.069 
16:00	40.8	40.8	40.8	74	33.2	0	2	68	0.00	30.072 
16:05	40.9	40.9	40.9	74	33.3	0	1	68	0.00	30.072 
16:10	40.9	40.9	40.9	75	33.6	0	3	68	0.00	30.072 
16:15	40.9	40.9	40.9	76	33.9	0	3	68	0.00	30.073 
16:20	40.8	40.8	40.8	77	34.2	0	2	68	0.00	30.073 
16:25	40.6	40.6	40.6	78	34.3	0	1	68	0.00	30.073 
16:30	40.5	40.5	40.5	79	34.5	0	3	90	0.00	30.069 
16:35	40.2	40.2	40.2	81	34.8	0	2	90	0.00	30.069 
16:40	40.1	40.1	40.1	81	34.7	0	0	---	0.00	30.069 
16:45	39.9	39.9	39.9	82	34.9	0	2	90	0.00	30.065 
16:50	39.8	39.8	39.8	82	34.8	0	2	90	0.00	30.065 
16:55	39.6	39.6	39.6	83	34.9	1	6	90	0.01	30.065 
17:00	39.5	39.5	39.5	84	35.1	1	4	90	0.00	30.062 
17:05	39.3	39.3	39.3	84	34.9	1	4	90	0.00	30.062 
17:10	39.1	39.1	39.1	85	35.0	1	4	90	0.01	30.062 
17:15	38.9	38.9	38.9	85	34.8	1	3	68	0.00	30.058 
17:20	38.8	38.8	38.8	86	35.0	1	5	112	0.00	30.058 
17:25	38.6	38.6	38.6	86	34.8	1	4	112	0.01	30.058 
17:30	38.6	38.6	38.6	87	35.1	1	4	112	0.00	30.052 
17:35	38.5	38.5	38.5	87	35.0	1	3	90	0.00	30.052 
17:40	38.5	38.5	38.5	88	35.3	0	2	90	0.01	30.052 
17:45	38.3	38.3	38.3	88	35.1	0	2	90	0.00	30.066 
17:50	38.2	38.2	38.2	88	35.0	0	2	90	0.00	30.066 
17:55	38.2	38.2	38.2	88	35.0	0	1	90	0.00	30.066 
18:00	38.0	38.0	38.0	89	35.1	0	1	90	0.00	30.067 
18:05	38.0	38.0	38.0	89	35.1	0	0	---	0.01	30.067 
18:10	38.0	38.0	38.0	89	35.1	0	1	90	0.00	30.067 
18:15	38.0	38.0	38.0	89	35.1	0	1	90	0.00	30.065 
18:20	37.9	37.9	37.9	90	35.2	0	0	---	0.00	30.065 
18:25	37.9	37.9	37.9	90	35.2	0	1	90	0.00	30.065 
18:30	37.9	37.9	37.9	90	35.2	0	0	---	0.00	30.068 
18:35	37.9	37.9	37.9	90	35.2	0	1	90	0.00	30.068 
18:40	37.9	37.9	37.9	90	35.2	0	1	90	0.00	30.068 
18:45	37.9	37.9	37.9	91	35.5	0	1	90	0.00	30.066 
18:50	37.8	37.8	37.8	91	35.4	0	0	---	0.00	30.066 
18:55	37.8	37.8	37.8	91	35.4	0	0	---	0.00	30.066 
19:00	37.8	37.8	37.8	91	35.4	0	0	---	0.00	30.066 
19:05	37.8	37.8	37.8	91	35.4	0	1	90	0.00	30.066 
19:10	37.8	37.8	37.8	91	35.4	0	1	90	0.00	30.066 
19:15	37.8	37.8	37.8	91	35.4	0	0	---	0.00	30.063 
19:20	37.8	37.8	37.8	91	35.4	0	1	90	0.00	30.063 
19:25	37.8	37.8	37.8	92	35.7	0	0	---	0.00	30.063 
19:30	37.9	37.9	37.9	92	35.8	0	1	90	0.00	30.062 
19:35	37.9	37.9	37.9	92	35.8	0	1	90	0.00	30.062 
19:40	37.9	37.9	37.9	92	35.8	0	0	---	0.00	30.062 
19:45	37.9	37.9	37.9	92	35.8	0	0	---	0.00	30.064 
19:50	37.9	37.9	37.9	92	35.8	0	0	---	0.00	30.064 
19:55	37.9	37.9	37.9	92	35.8	0	0	---	0.00	30.064 
20:00	37.9	37.9	37.9	92	35.8	0	1	90	0.00	30.065 
20:05	38.0	38.0	38.0	92	35.9	0	0	---	0.00	30.065 
20:10	38.0	38.0	38.0	92	35.9	0	0	---	0.00	30.065 
20:15	38.0	38.0	38.0	92	35.9	0	0	---	0.01	30.059 
20:20	38.0	38.0	38.0	92	35.9	0	1	90	0.00	30.059 
20:25	38.0	38.0	38.0	92	35.9	0	0	---	0.00	30.059 
20:30	38.0	38.0	38.0	92	35.9	0	2	90	0.00	30.055 
20:35	38.0	38.0	38.0	92	35.9	0	2	90	0.00	30.055 
20:40	38.0	38.0	38.0	93	36.2	0	2	90	0.00	30.055 
20:45	38.0	38.0	38.0	93	36.2	0	1	90	0.00	30.052 
20:50	38.0	38.0	38.0	93	36.2	0	2	90	0.00	30.052 
20:55	38.0	38.0	38.0	93	36.2	0	1	90	0.00	30.052 
21:00	38.2	38.2	38.2	93	36.4	0	2	90	0.00	30.050 
21:05	38.2	38.2	38.2	93	36.4	0	3	90	0.00	30.050 
21:10	38.2	38.2	38.2	93	36.4	0	2	90	0.00	30.050 
21:15	38.2	38.2	38.2	93	36.4	0	2	90	0.00	30.049 
21:20	38.2	38.2	38.2	93	36.4	0	2	90	0.00	30.049 
21:25	38.2	38.2	38.2	93	36.4	0	2	90	0.00	30.049 
21:30	38.2	38.2	38.2	93	36.4	0	2	90	0.00	30.048 
21:35	38.2	38.2	38.2	93	36.4	0	2	90	0.00	30.048 
21:40	38.2	38.2	38.2	93	36.4	0	2	90	0.00	30.048 
21:45	38.2	38.2	38.2	93	36.4	0	2	90	0.00	30.048 
21:50	38.2	38.2	38.2	93	36.4	0	2	90	0.01	30.048 
21:55	38.2	38.2	38.2	94	36.6	0	2	90	0.00	30.048 
22:00	38.2	38.2	38.2	94	36.6	0	1	90	0.00	30.048 
22:05	38.2	38.2	38.2	94	36.6	0	3	90	0.00	30.048 
22:10	38.2	38.2	38.2	94	36.6	0	2	90	0.00	30.048 
22:15	38.2	38.2	38.2	94	36.6	0	2	90	0.00	30.043 
22:20	38.2	38.2	38.2	94	36.6	0	2	90	0.00	30.043 
22:25	38.2	38.2	38.2	94	36.6	0	2	90	0.00	30.043 
22:30	38.2	38.2	38.2	94	36.6	1	4	90	0.00	30.043 
22:35	38.2	38.2	38.2	94	36.6	0	3	90	0.00	30.043 
22:40	38.2	38.2	38.2	94	36.6	0	2	90	0.00	30.043 
22:45	38.0	38.0	38.0	94	36.4	0	2	90	0.00	30.043 
22:50	38.0	38.0	38.0	94	36.4	0	1	90	0.00	30.043 
22:55	38.0	38.0	38.0	94	36.4	0	1	90	0.00	30.043 
23:00	38.0	38.0	38.0	94	36.4	0	2	90	0.00	30.043 
23:05	38.0	38.0	38.0	94	36.4	0	1	90	0.00	30.043 
23:10	38.0	38.0	38.0	94	36.4	0	3	90	0.00	30.043 
23:15	38.0	38.0	38.0	94	36.4	0	2	90	0.00	30.041 
23:20	38.0	38.0	38.0	94	36.4	0	1	90	0.00	30.041 
23:25	38.0	38.0	38.0	94	36.4	0	2	90	0.00	30.041 
23:30	38.0	38.0	38.0	94	36.4	0	2	90	0.00	30.042 
23:35	38.0	38.0	38.0	94	36.4	0	1	90	0.00	30.042 
23:40	38.0	38.0	38.0	94	36.4	0	1	90	0.01	30.042 
23:45	38.0	38.0	38.0	94	36.4	0	2	90	0.00	30.041 
23:50	38.0	38.0	38.0	94	36.4	0	1	90	0.00	30.041 
23:55	38.0	38.0	38.0	94	36.4	0	1	90	0.00	30.041 

CoCoRaHS
IN-AL-39
A2 Web Hosting
Creative Commons License
GoDaddy
search engine by freefind advanced

loaded 2018-11-19 10:22:55 • last modified 2010-11-18 10:43:29
Privacy PolicyDisclaimer
• wx.awcolley.com is powered by PmWiki v.2002016 •
• all content (unless otherwise noted) © 2018 A W Colley